Rumney, United Kingdom
Current Conditions -  °F | °C
As of 10:50 PM on Thursday 23 Oct 2014 (Local Time) from EGFF Reporting Station
Broken Clouds Broken Clouds  
Wind Chill: 59°   Ceiling: 3300
Heat Index: 59°   Visibility: 6mi
Dew Point: 55°   Wind: 8mph
Humidity: 88%   Direction: 230°SW
Pressure: 30"   Gusts: NA
Location:  51.5°N, 3.13°W
Report Text: EGFF 232150Z 23007KT 9999 SCT015 BKN033 15/13 Q1016
Loading
Personal Weather Stations






























Interactive Weather Map
Tropical Storm Tracking
New forecast layout! Learn more

10-Day Weather Forecast

Advertisements
Track Severe Weather on mobile